地図

経路データ

SID SEASON NUMBER BASIN SUBBASIN NAME ISO_TIME NATURE LAT LON WMO_WIND WMO_PRES WMO_AGENCY TRACK_TYPE DIST2LAND LANDFALL IFLAG USA_AGENCY USA_ATCF_ID USA_LAT USA_LON USA_RECORD USA_STATUS USA_WIND USA_PRES USA_SSHS USA_R34_NE USA_R34_SE USA_R34_SW USA_R34_NW USA_R50_NE USA_R50_SE USA_R50_SW USA_R50_NW USA_R64_NE USA_R64_SE USA_R64_SW USA_R64_NW USA_POCI USA_ROCI USA_RMW USA_EYE TOKYO_LAT TOKYO_LON TOKYO_GRADE TOKYO_WIND TOKYO_PRES TOKYO_R50_DIR TOKYO_R50_LONG TOKYO_R50_SHORT TOKYO_R30_DIR TOKYO_R30_LONG TOKYO_R30_SHORT TOKYO_LAND CMA_LAT CMA_LON CMA_CAT CMA_WIND CMA_PRES HKO_LAT HKO_LON HKO_CAT HKO_WIND HKO_PRES NEWDELHI_LAT NEWDELHI_LON NEWDELHI_GRADE NEWDELHI_WIND NEWDELHI_PRES NEWDELHI_CI NEWDELHI_DP NEWDELHI_POCI REUNION_LAT REUNION_LON REUNION_TYPE REUNION_WIND REUNION_PRES REUNION_TNUM REUNION_CI REUNION_RMW REUNION_R34_NE REUNION_R34_SE REUNION_R34_SW REUNION_R34_NW REUNION_R50_NE REUNION_R50_SE REUNION_R50_SW REUNION_R50_NW REUNION_R64_NE REUNION_R64_SE REUNION_R64_SW REUNION_R64_NW BOM_LAT BOM_LON BOM_TYPE BOM_WIND BOM_PRES BOM_TNUM BOM_CI BOM_RMW BOM_R34_NE BOM_R34_SE BOM_R34_SW BOM_R34_NW BOM_R50_NE BOM_R50_SE BOM_R50_SW BOM_R50_NW BOM_R64_NE BOM_R64_SE BOM_R64_SW BOM_R64_NW BOM_ROCI BOM_POCI BOM_EYE BOM_POS_METHOD BOM_PRES_METHOD NADI_LAT NADI_LON NADI_CAT NADI_WIND NADI_PRES WELLINGTON_LAT WELLINGTON_LON WELLINGTON_WIND WELLINGTON_PRES DS824_LAT DS824_LON DS824_STAGE DS824_WIND DS824_PRES TD9636_LAT TD9636_LON TD9636_STAGE TD9636_WIND TD9636_PRES TD9635_LAT TD9635_LON TD9635_WIND TD9635_PRES TD9635_ROCI NEUMANN_LAT NEUMANN_LON NEUMANN_CLASS NEUMANN_WIND NEUMANN_PRES MLC_LAT MLC_LON MLC_CLASS MLC_WIND MLC_PRES USA_GUST BOM_GUST BOM_GUST_PER REUNION_GUST REUNION_GUST_PER USA_SEAHGT USA_SEARAD_NE USA_SEARAD_SE USA_SEARAD_SW USA_SEARAD_NW STORM_SPEED STORM_DIR
1989060S09097 1989 20 SI WA MARCIA 1989-02-28 18:00:00 TS -9.00000 97.0000 main 810 802 O_________O_O_ jtwc_sh SH171989 -9.00000 97.0000 20 -1 -9.00000 97.0000 1 20 -9.00000 97.0000 TC 20 5 119
1989060S09097 1989 20 SI WA MARCIA 1989-02-28 21:00:00 TS -9.11554 97.2062 main 802 794 P_________P_P_ SH171989 -9.11005 97.2100 20 -1 -9.12653 97.1988 1 20 -9.11005 97.2100 TC 20 4 117
1989060S09097 1989 20 SI WA MARCIA 1989-03-01 00:00:00 TS -9.20000 97.4000 main 795 780 O_________O_O_ jtwc_sh SH171989 -9.20000 97.4000 20 -1 -9.20000 97.4000 1 20 -9.20000 97.4000 TC 20 4 108
1989060S09097 1989 20 SI WA MARCIA 1989-03-01 03:00:00 TS -9.23523 97.5836 main 780 773 P_________P_P_ SH171989 -9.25742 97.5700 20 -1 -9.19085 97.6108 1 20 -9.25742 97.5700 TC 20 4 97
1989060S09097 1989 20 SI WA MARCIA 1989-03-01 06:00:00 TS -9.25434 97.8196 main 774 753 O_________P_O_ jtwc_sh SH171989 -9.30000 97.8000 20 -1 -9.16301 97.8589 1 20 -9.30000 97.8000 TC 20 6 95
1989060S09097 1989 20 SI WA MARCIA 1989-03-01 09:00:00 TS -9.28115 98.1476 main 753 725 P_________P_P_ SH171989 -9.31988 98.1327 20 -1 -9.20369 98.1774 1 20 -9.31988 98.1327 TC 20 8 101
1989060S09097 1989 20 SI WA MARCIA 1989-03-01 12:00:00 TS -9.40000 98.6000 main 725 699 O_________O_O_ jtwc_sh SH171989 -9.40000 98.6000 20 -1 -9.40000 98.6000 1 20 -9.40000 98.6000 TC 20 11 107
1989060S09097 1989 20 SI WA MARCIA 1989-03-01 15:00:00 TS -9.61197 99.2273 main 702 684 P_________P_P_ SH171989 -9.50756 99.2057 20 -1 -9.82078 99.2705 1 20 -9.50756 99.2057 TC 20 15 117
1989060S09097 1989 20 SI WA MARCIA 1989-03-01 18:00:00 TS -10.0684 99.9430 main 690 667 O_________P_O_ jtwc_sh SH171989 -9.90000 99.9000 20 -1 -10.4051 100.029 1 20 -9.90000 99.9000 TC 20 19 132
1989060S09097 1989 20 SI WA MARCIA 1989-03-01 21:00:00 TS -10.8958 100.699 main 675 674 P_________P_P_ SH171989 -10.7879 100.674 20 -1 -11.1116 100.748 1 20 -10.7879 100.674 TC 20 23 144
1989060S09097 1989 20 SI WA MARCIA 1989-03-02 00:00:00 TS -11.9000 101.300 20 1004 bom main 713 713 O_________O_O_ jtwc_sh SH171989 -11.9000 101.300 20 -1 -11.9000 101.300 1 20 -11.9000 101.300 TC 20 22 157
1989060S09097 1989 20 SI WA MARCIA 1989-03-02 03:00:00 TS -12.8830 101.570 main 788 788 P_________P_P_ SH171989 -12.9371 101.571 22 -1 -12.7749 101.570 1 21 -12.9371 101.571 TC 22 20 171
1989060S09097 1989 20 SI WA MARCIA 1989-03-02 06:00:00 TS -13.8361 101.617 20 1004 bom main 877 877 O_________P_O_ jtwc_sh SH171989 -13.9000 101.600 25 -1 -13.7083 101.651 1 22 -13.9000 101.600 TC 25 18 179
1989060S09097 1989 20 SI WA MARCIA 1989-03-02 09:00:00 TS -14.6925 101.572 main 968 968 P_________P_P_ SH171989 -14.7324 101.568 25 -1 -14.6128 101.582 1 23 -14.7324 101.568 TC 25 16 188
1989060S09097 1989 20 SI WA MARCIA 1989-03-02 12:00:00 TS -15.4000 101.400 25 1002 bom main 1048 1048 O_________O_O_ jtwc_sh SH171989 -15.4000 101.400 25 -1 -15.4000 101.400 1 25 -15.4000 101.400 TC 25 13 198
1989060S09097 1989 20 SI WA MARCIA 1989-03-02 15:00:00 TS -15.9238 101.152 main 1107 1107 P_________P_P_ SH171989 -15.9025 101.137 27 -1 -15.9665 101.180 1 26 -15.9025 101.137 TC 27 11 211
1989060S09097 1989 20 SI WA MARCIA 1989-03-02 18:00:00 TS -16.3358 100.821 25 1000 bom main 1166 1166 O_________P_O_ jtwc_sh SH171989 -16.3000 100.800 30 -1 -16.4075 100.863 1 27 -16.3000 100.800 TC 30 11 219
1989060S09097 1989 20 SI WA MARCIA 1989-03-02 21:00:00 TS -16.7382 100.468 main 1220 1220 P_________P_P_ SH171989 -16.7225 100.457 30 -1 -16.7697 100.489 1 28 -16.7225 100.457 TC 30 10 222
1989060S09097 1989 20 SI WA MARCIA 1989-03-03 00:00:00 TS -17.1000 100.100 30 998 bom main 1279 1279 O_________O_O_ jtwc_sh SH171989 -17.1000 100.100 30 -1 -17.1000 100.100 1 30 -17.1000 100.100 TC 30 10 225
1989060S09097 1989 20 SI WA MARCIA 1989-03-03 03:00:00 TS -17.4265 99.7481 main 1328 1328 P_________P_P_ SH171989 -17.3999 99.7497 32 -1 -17.4797 99.7448 1 31 -17.3999 99.7497 TC 32 9 226
1989060S09097 1989 20 SI WA MARCIA 1989-03-03 06:00:00 TS -17.7458 99.3949 35 995 bom main 1373 1373 O_________P_O_ jtwc_sh SH171989 -17.7000 99.4000 35 0 -17.8375 99.3848 1 32 -17.7000 99.4000 TC 35 10 224
1989060S09097 1989 20 SI WA MARCIA 1989-03-03 09:00:00 TS -18.1205 99.0342 main 1432 1432 P_________P_P_ SH171989 -18.0925 99.0351 35 0 -18.1766 99.0323 1 33 -18.0925 99.0351 TC 35 10 225
1989060S09097 1989 20 SI WA MARCIA 1989-03-03 12:00:00 TS -18.4462 98.6539 35 995 bom main 1477 1477 O_____O___O_O_ jtwc_sh SH171989 -18.5000 98.7000 35 0 -17.8000 98.1000 30 35 995 3.00000 296 3 5 -18.5000 98.7000 2 35 -18.5000 98.7000 TC 35 9 227
1989060S09097 1989 20 SI WA MARCIA 1989-03-03 15:00:00 TS -18.7109 98.3560 main 1522 1522 P_____P___P_P_ SH171989 -18.8724 98.4423 32 -1 -17.8776 97.9374 30 35 995 277 -18.7695 98.3903 2 33 -18.8724 98.4423 TC 32 7 226
1989060S09097 1989 20 SI WA MARCIA 1989-03-03 18:00:00 TS -18.9553 98.0943 35 995 bom main 1567 1567 O_____O___P_O_ jtwc_sh SH171989 -19.2000 98.2000 30 -1 -18.2000 97.8000 30 35 995 3.00000 259 3 5 -19.0323 98.1038 2 32 -19.2000 98.2000 TC 30 7 222
1989060S09097 1989 20 SI WA MARCIA 1989-03-03 21:00:00 TS -19.2685 97.8312 main 1612 1612 P_____P___P_P_ SH171989 -19.4201 97.8922 30 -1 -18.9050 97.7000 30 35 995 250 -19.3290 97.8404 2 31 -19.4201 97.8922 TC 30 9 212
1989060S09097 1989 20 SI WA MARCIA 1989-03-04 00:00:00 TS -19.7000 97.6000 35 995 bom main 1661 1661 O_____O___O_O_ jtwc_sh SH171989 -19.7000 97.6000 30 -1 -19.7000 97.6000 30 35 995 3.00000 242 3 5 -19.7000 97.6000 1 30 -19.7000 97.6000 TC 30 10 204
1989060S09097 1989 20 SI WA MARCIA 1989-03-04 03:00:00 TS -20.1962 97.3916 main 1697 1694 P_____P___P_P_ SH171989 -20.1974 97.3849 27 -1 -20.2225 97.4499 30 32 996 201 -20.1676 97.3466 1 28 -20.1974 97.3849 TC 27 11 199
1989060S09097 1989 20 SI WA MARCIA 1989-03-04 06:00:00 TS -20.7538 97.2046 30 998 bom main 1704 1703 O_____O___P_O_ jtwc_sh SH171989 -20.8000 97.2000 25 -1 -20.7000 97.3000 20 30 998 2.50000 161 3 5 -20.7152 97.1185 1 27 -20.8000 97.2000 TC 25 12 197
1989060S09097 1989 20 SI WA MARCIA 1989-03-04 09:00:00 TS -21.3369 97.0178 main 1713 1705 P_____P___P_P_ SH171989 -21.3700 96.9776 25 -1 -21.2775 97.1850 20 27 999 207 -21.3302 96.9311 1 26 -21.3700 96.9776 TC 25 13 194
1989060S09097 1989 20 SI WA MARCIA 1989-03-04 12:00:00 TS -21.9750 96.8750 25 1000 bom main 1705 1702 O_____O___O_O_ jtwc_sh SH171989 -22.0000 96.8000 25 -1 -21.9000 97.1000 20 25 1000 2.00000 253 3 5 -22.0000 96.8000 1 25 -22.0000 96.8000 TC 25 14 189
1989060S09097 1989 20 SI WA MARCIA 1989-03-04 15:00:00 TS -22.6749 96.7984 main 1700 1689 P_____P___P_P_ SH171989 -22.7275 96.7124 25 -1 -22.5425 97.0350 20 25 1001 -22.7021 96.7336 1 25 -22.7275 96.7124 TC 25 14 184
1989060S09097 1989 20 SI WA MARCIA 1989-03-04 18:00:00 TS -23.4130 96.7810 25 1002 bom main 1689 1674 O_____O___P_O_ jtwc_sh SH171989 -23.5000 96.7000 25 -1 -23.2000 97.0000 20 25 1002 2.00000 3 5 -23.4522 96.7241 1 25 -23.5000 96.7000 TC 25 15 0
1989060S09097 1989 20 SI WA MARCIA 1989-03-04 21:00:00 TS -24.1459 96.8037 main 1674 1650 P_____P___P_P_ SH171989 -24.2500 96.7348 25 -1 -23.8575 96.9924 20 25 1003 -24.2261 96.7526 1 25 -24.2500 96.7348 TC 25 14 177
1989060S09097 1989 20 SI WA MARCIA 1989-03-05 00:00:00 TS -24.8462 96.8615 25 1004 bom main 1650 1640 O_____O___O_O_ jtwc_sh SH171989 -25.0000 96.8000 25 -1 -24.5000 97.0000 20 25 1004 1.50000 3 5 -25.0000 96.8000 1 25 -25.0000 96.8000 TC 25 14 176
1989060S09097 1989 20 SI WA MARCIA 1989-03-05 03:00:00 TS -25.4942 96.9120 main 1640 1624 P_____P___P_P_ SH171989 -25.7500 96.8550 22 -1 -25.1075 97.0000 20 25 1004 -25.7560 96.8500 1 22 -25.7500 96.8550 TC 22 12 176
1989060S09097 1989 20 SI WA MARCIA 1989-03-05 06:00:00 TS -26.0429 96.9572 25 1004 bom main 1624 1622 O_____O___O_O_ jtwc_sh SH171989 -26.5000 96.9000 20 -1 -25.7000 97.0000 20 25 1004 1.50000 3 5 -26.5000 96.9000 1 20 -26.5000 96.9000 TC 20 8 174
1989060S09097 1989 20 SI WA MARCIA 1989-03-05 09:00:00 NR -26.3075 97.0000 main 1622 1619 ______P_______ SH171989 -1 -26.3075 97.0000 20 22 1005 1 TC 9 178
1989060S09097 1989 20 SI WA MARCIA 1989-03-05 12:00:00 NR -26.9000 97.0000 20 1006 bom main 1619 1618 ______O_______ -1 -26.9000 97.0000 20 20 1006 1.00000 3 5 11 180
1989060S09097 1989 20 SI WA MARCIA 1989-03-05 15:00:00 NR -27.4425 97.0000 main 1619 1619 ______P_______ -1 -27.4425 97.0000 20 20 1006 11 180
1989060S09097 1989 20 SI WA MARCIA 1989-03-05 18:00:00 NR -28.0000 97.0000 20 1006 bom main 1621 1621 ______O_______ -1 -28.0000 97.0000 20 20 1006 1.00000 3 5 12 0
1989060S09097 1989 20 SI WA MARCIA 1989-03-05 21:00:00 NR -28.6725 97.0000 main 1626 1626 ______P_______ -1 -28.6725 97.0000 20 20 1006 13 179
1989060S09097 1989 20 SI WA MARCIA 1989-03-06 00:00:00 NR -29.3000 97.0000 20 1006 bom main 1634 1634 ______O_______ -1 -29.3000 97.0000 20 20 1006 1.00000 3 5 11 179
1989060S09097 1989 20 SI WA MARCIA 1989-03-06 03:00:00 NR -29.7550 97.0000 main 1643 1643 ______P_______ -1 -29.7550 97.0000 20 20 1007 8 179
1989060S09097 1989 20 SI WA MARCIA 1989-03-06 06:00:00 NR -30.1000 97.0000 20 1008 bom main 1649 ______O_______ -1 -30.1000 97.0000 20 20 1008 1.00000 3 5 7 0

IBTrACS Databaseについて

本データベースは、米国NOAAが公開する1842年以降の世界の熱帯低気圧のベストトラックデータアーカイブInternational Best Track Archive for Climate Stewardship (IBTrACS)を、ウェブで閲覧しやすい形式に変換したものです。

最終更新日:2021-12-01